Time;durP1;ratioP1;P1;durP2;ratioP2;P2;SDS_P1;SDS_P2;PMS_P1;PMS_P2;Temp;Humidity;BMP_temperature;BMP_pressure;BME280_temperature;BME280_humidity;BME280_pressure;Samples;Min_cycle;Max_cycle;Signal;HPM_P1;HPM_P2
2022/04/24 00:01:39;;;;;;;;;;;;;;;6.22;72.23;99603.49;86009;1332;22543;-81
2022/04/24 00:03:44;;;;;;;;;;;;;;;6.22;72.11;99601.59;85882;1336;22575;-81
2022/04/24 00:05:48;;;;;;;;;;;;;;;6.23;72.21;99601.52;85910;1333;22719;-81
2022/04/24 00:07:56;;;;;;;;;;;;;;;6.23;72.03;99599.83;85986;1333;23226;-75
2022/04/24 00:10:01;;;;;;;;;;;;;;;6.20;72.09;99595.02;85989;1332;23286;-74
2022/04/24 00:12:08;;;;;;;;;;;;;;;6.17;72.00;99593.74;85978;1333;22670;-73
2022/04/24 00:14:14;;;;;;;;;;;;;;;6.15;72.30;99595.90;85997;1333;23119;-73
2022/04/24 00:16:19;;;;;;;;;;;;;;;6.12;72.07;99600.84;85993;1333;22454;-73
2022/04/24 00:18:24;;;;;;;;;;;;;;;6.08;72.12;99594.40;85960;1335;23144;-74
2022/04/24 00:20:29;;;;;;;;;;;;;;;6.02;72.11;99590.44;85971;1333;23164;-74
2022/04/24 00:22:34;;;;;;;;;;;;;;;5.97;72.10;99585.59;85979;1333;22472;-73
2022/04/24 00:24:38;;;;;;;;;;;;;;;5.90;71.90;99586.12;84561;1329;1002425;-74
2022/04/24 00:26:43;;;;;;;;;;;;;;;5.82;71.98;99580.28;85982;1332;23243;-80
2022/04/24 00:28:47;;;;;;;;;;;;;;;5.76;72.48;99578.40;85956;1333;23258;-81
2022/04/24 00:30:52;;;;;;;;;;;;;;;5.70;72.38;99578.77;85993;1330;22575;-82
2022/04/24 00:32:56;;;;;;;;;;;;;;;5.63;72.14;99576.38;85995;1333;23252;-73
2022/04/24 00:35:01;;;;;;;;;;;;;;;5.57;72.50;99575.19;85991;1333;23170;-73
2022/04/24 00:37:06;;;;;;;;;;;;;;;5.51;72.56;99580.56;85993;1333;23213;-73
2022/04/24 00:39:11;;;;;;;;;;;;;;;5.43;72.54;99578.89;85853;1333;22548;-73
2022/04/24 00:41:16;;;;;;;;;;;;;;;5.35;72.63;99574.29;85983;1333;22461;-73
2022/04/24 00:43:21;;;;;;;;;;;;;;;5.27;72.92;99578.84;85993;1332;22573;-73
2022/04/24 00:45:29;;;;;;;;;;;;;;;5.18;72.75;99587.58;85982;1333;23095;-73
2022/04/24 00:47:33;;;;;;;;;;;;;;;5.09;73.03;99590.77;85961;1330;23149;-73
2022/04/24 00:49:38;;;;;;;;;;;;;;;5.02;73.11;99594.09;85977;1333;22743;-74
2022/04/24 00:51:43;;;;;;;;;;;;;;;4.97;73.28;99594.55;85986;1334;23118;-81
2022/04/24 00:53:47;;;;;;;;;;;;;;;4.96;73.65;99598.05;85973;1335;22519;-81
2022/04/24 00:55:53;;;;;;;;;;;;;;;4.98;74.08;99593.86;85986;1333;23181;-81
2022/04/24 00:57:59;;;;;;;;;;;;;;;5.01;74.45;99590.81;85996;1335;23293;-73
2022/04/24 01:00:07;;;;;;;;;;;;;;;5.07;74.49;99596.88;85255;1333;1002254;-73
2022/04/24 01:02:14;;;;;;;;;;;;;;;5.13;74.82;99595.50;86001;1333;22455;-82
2022/04/24 01:04:19;;;;;;;;;;;;;;;5.18;75.11;99592.77;85996;1335;23061;-82
2022/04/24 01:06:24;;;;;;;;;;;;;;;5.24;75.30;99593.64;85981;1335;22488;-82
2022/04/24 01:08:33;;;;;;;;;;;;;;;5.29;75.47;99590.71;85989;1335;22522;-82
2022/04/24 01:10:39;;;;;;;;;;;;;;;5.35;75.35;99590.54;85986;1334;22465;-82
2022/04/24 01:12:44;;;;;;;;;;;;;;;5.40;75.36;99591.62;85960;1335;23184;-74
2022/04/24 01:14:51;;;;;;;;;;;;;;;5.45;75.53;99589.20;85994;1332;22615;-74
2022/04/24 01:16:56;;;;;;;;;;;;;;;5.50;75.33;99595.63;85994;1335;22531;-74
2022/04/24 01:19:00;;;;;;;;;;;;;;;5.56;75.40;99595.11;85935;1335;23086;-73
2022/04/24 01:21:09;;;;;;;;;;;;;;;5.63;75.14;99597.52;85989;1334;22501;-74
2022/04/24 01:23:15;;;;;;;;;;;;;;;5.70;75.54;99598.15;85940;1333;22682;-74
2022/04/24 01:25:20;;;;;;;;;;;;;;;5.78;75.85;99596.36;85981;1334;23228;-73
2022/04/24 01:27:25;;;;;;;;;;;;;;;5.86;75.54;99599.03;85997;1332;22521;-82
2022/04/24 01:29:32;;;;;;;;;;;;;;;5.95;75.17;99598.80;85982;1335;22603;-82
2022/04/24 01:31:36;;;;;;;;;;;;;;;6.02;75.04;99597.01;85982;1332;22510;-82
2022/04/24 01:33:41;;;;;;;;;;;;;;;6.09;75.25;99593.33;85988;1334;22635;-82
2022/04/24 01:35:48;;;;;;;;;;;;;;;6.15;75.13;99591.05;85866;1336;22511;-82
2022/04/24 01:37:55;;;;;;;;;;;;;;;6.19;75.17;99583.95;85974;1335;22528;-76
2022/04/24 01:40:00;;;;;;;;;;;;;;;6.19;74.75;99585.22;85980;1335;22587;-73
2022/04/24 01:42:06;;;;;;;;;;;;;;;6.15;74.70;99584.10;85978;1330;23154;-73
2022/04/24 01:44:10;;;;;;;;;;;;;;;6.14;74.52;99580.34;86002;1334;23293;-74
2022/04/24 01:46:15;;;;;;;;;;;;;;;6.11;74.36;99582.02;85988;1333;22484;-73
2022/04/24 01:48:20;;;;;;;;;;;;;;;6.08;74.22;99583.83;85997;1332;23208;-82
2022/04/24 01:50:24;;;;;;;;;;;;;;;6.03;74.24;99584.51;85940;1333;23145;-83
2022/04/24 01:52:29;;;;;;;;;;;;;;;5.99;74.20;99583.10;85997;1334;23158;-83
2022/04/24 01:54:33;;;;;;;;;;;;;;;5.95;74.28;99579.91;86010;1330;23181;-82
2022/04/24 01:56:41;;;;;;;;;;;;;;;5.92;74.15;99581.73;85996;1333;23274;-82
2022/04/24 01:58:46;;;;;;;;;;;;;;;5.88;74.29;99581.67;85991;1333;23135;-83
2022/04/24 02:00:53;;;;;;;;;;;;;;;5.85;74.45;99584.86;85988;1332;22444;-83
2022/04/24 02:02:58;;;;;;;;;;;;;;;5.83;74.42;99582.70;85990;1333;23167;-74
2022/04/24 02:05:03;;;;;;;;;;;;;;;5.81;74.68;99580.67;86000;1333;22469;-75
2022/04/24 02:07:08;;;;;;;;;;;;;;;5.80;74.86;99581.73;85985;1330;22491;-82
2022/04/24 02:09:13;;;;;;;;;;;;;;;5.80;75.17;99579.86;85982;1333;22459;-83
2022/04/24 02:11:18;;;;;;;;;;;;;;;5.81;75.07;99580.48;85985;1333;22477;-83
2022/04/24 02:13:25;;;;;;;;;;;;;;;5.83;74.84;99576.48;85997;1330;22532;-74
2022/04/24 02:15:33;;;;;;;;;;;;;;;5.84;74.84;99584.73;85974;1334;23078;-75
2022/04/24 02:17:38;;;;;;;;;;;;;;;5.86;74.98;99587.10;85953;1335;22512;-73
2022/04/24 02:19:46;;;;;;;;;;;;;;;5.86;74.89;99589.51;85986;1328;22428;-74
2022/04/24 02:21:51;;;;;;;;;;;;;;;5.89;75.09;99591.52;85993;1333;23021;-82
2022/04/24 02:23:58;;;;;;;;;;;;;;;5.90;75.04;99596.48;85997;1331;22534;-82
2022/04/24 02:26:03;;;;;;;;;;;;;;;5.91;74.96;99595.60;85990;1333;23035;-82
2022/04/24 02:28:10;;;;;;;;;;;;;;;5.92;75.21;99598.53;85989;1333;23160;-83
2022/04/24 02:30:15;;;;;;;;;;;;;;;5.93;75.25;99597.98;85985;1333;23204;-83
2022/04/24 02:32:19;;;;;;;;;;;;;;;5.93;74.90;99598.69;86006;1333;23222;-82
2022/04/24 02:34:25;;;;;;;;;;;;;;;5.93;74.99;99600.04;85987;1334;22617;-83
2022/04/24 02:36:31;;;;;;;;;;;;;;;5.96;75.02;99605.17;85983;1333;23069;-75
2022/04/24 02:38:35;;;;;;;;;;;;;;;5.97;75.21;99603.42;85985;1330;23198;-82
2022/04/24 02:40:40;;;;;;;;;;;;;;;5.97;74.88;99604.44;85992;1334;22612;-82
2022/04/24 02:42:48;;;;;;;;;;;;;;;5.99;75.21;99599.90;85977;1333;23222;-83
2022/04/24 02:44:52;;;;;;;;;;;;;;;5.96;74.83;99598.23;86002;1334;22426;-83
2022/04/24 02:46:57;;;;;;;;;;;;;;;5.95;74.63;99597.40;86005;1333;22458;-82
2022/04/24 02:49:01;;;;;;;;;;;;;;;5.94;75.02;99597.75;85992;1334;22428;-83
2022/04/24 02:51:06;;;;;;;;;;;;;;;5.96;75.02;99597.55;85975;1334;22461;-74
2022/04/24 02:53:11;;;;;;;;;;;;;;;5.97;75.05;99592.33;85998;1333;23125;-73
2022/04/24 02:55:17;;;;;;;;;;;;;;;5.97;74.92;99592.84;85978;1333;23113;-74
2022/04/24 02:57:22;;;;;;;;;;;;;;;6.00;75.24;99588.42;85983;1333;22479;-82
2022/04/24 02:59:27;;;;;;;;;;;;;;;6.04;74.87;99592.95;85986;1333;23165;-82
2022/04/24 03:01:33;;;;;;;;;;;;;;;6.10;74.92;99591.39;85982;1333;22511;-78
2022/04/24 03:03:42;;;;;;;;;;;;;;;6.16;75.19;99595.02;85993;1333;23130;-82
2022/04/24 03:05:46;;;;;;;;;;;;;;;6.22;75.00;99596.38;86001;1333;22546;-82
2022/04/24 03:07:51;;;;;;;;;;;;;;;6.27;74.85;99593.96;85994;1333;22463;-73
2022/04/24 03:09:56;;;;;;;;;;;;;;;6.32;74.75;99588.77;85985;1331;23106;-73
2022/04/24 03:12:00;;;;;;;;;;;;;;;6.36;74.87;99587.08;85987;1334;22474;-73
2022/04/24 03:14:05;;;;;;;;;;;;;;;6.39;74.85;99588.69;85984;1333;23126;-74
2022/04/24 03:16:11;;;;;;;;;;;;;;;6.42;74.67;99586.88;85992;1330;23164;-73
2022/04/24 03:18:16;;;;;;;;;;;;;;;6.43;74.64;99589.96;85964;1333;23155;-82
2022/04/24 03:20:20;;;;;;;;;;;;;;;6.43;74.41;99589.09;85990;1333;23136;-82
2022/04/24 03:22:28;;;;;;;;;;;;;;;6.41;74.43;99590.02;85998;1330;22466;-82
2022/04/24 03:24:33;;;;;;;;;;;;;;;6.41;74.41;99586.75;85999;1333;22540;-82
2022/04/24 03:26:38;;;;;;;;;;;;;;;6.42;74.08;99583.94;85995;1333;23147;-73
2022/04/24 03:28:43;;;;;;;;;;;;;;;6.39;74.15;99580.89;85982;1333;22569;-73
2022/04/24 03:30:48;;;;;;;;;;;;;;;6.38;74.23;99588.05;85996;1328;22772;-74
2022/04/24 03:32:53;;;;;;;;;;;;;;;6.34;74.03;99586.61;85995;1335;23029;-73
2022/04/24 03:35:01;;;;;;;;;;;;;;;6.28;74.20;99585.95;85998;1330;23099;-74
2022/04/24 03:37:06;;;;;;;;;;;;;;;6.23;74.42;99588.02;85962;1334;23040;-82
2022/04/24 03:39:14;;;;;;;;;;;;;;;6.18;74.37;99589.04;85975;1330;23126;-82
2022/04/24 03:41:22;;;;;;;;;;;;;;;6.15;74.44;99587.92;86002;1333;22440;-83
2022/04/24 03:43:31;;;;;;;;;;;;;;;6.13;74.50;99589.38;85996;1335;23149;-83
2022/04/24 03:45:36;;;;;;;;;;;;;;;6.12;74.70;99587.36;85995;1335;22525;-83
2022/04/24 03:47:40;;;;;;;;;;;;;;;6.11;75.02;99590.16;85988;1331;22433;-82
2022/04/24 03:49:47;;;;;;;;;;;;;;;6.12;75.02;99588.91;85999;1335;23108;-82
2022/04/24 03:51:55;;;;;;;;;;;;;;;6.12;74.95;99586.29;86002;1333;22577;-81
2022/04/24 03:53:59;;;;;;;;;;;;;;;6.13;74.94;99585.94;85977;1334;22439;-82
2022/04/24 03:56:04;;;;;;;;;;;;;;;6.12;75.36;99588.05;85975;1334;22583;-82
2022/04/24 03:58:09;;;;;;;;;;;;;;;6.13;75.31;99583.67;85979;1334;23152;-74
2022/04/24 04:00:16;;;;;;;;;;;;;;;6.14;75.24;99585.02;85996;1333;23017;-74
2022/04/24 04:02:21;;;;;;;;;;;;;;;6.17;75.33;99588.56;85975;1334;23232;-82
2022/04/24 04:04:29;;;;;;;;;;;;;;;6.18;75.16;99585.23;85994;1330;22544;-82
2022/04/24 04:06:34;;;;;;;;;;;;;;;6.20;75.35;99584.48;85988;1334;22419;-82
2022/04/24 04:08:38;;;;;;;;;;;;;;;6.22;75.08;99590.51;85996;1334;22624;-83
2022/04/24 04:10:43;;;;;;;;;;;;;;;6.23;75.51;99588.57;85988;1334;22646;-83
2022/04/24 04:12:51;;;;;;;;;;;;;;;6.25;75.44;99588.83;85997;1334;22520;-73
2022/04/24 04:14:55;;;;;;;;;;;;;;;6.27;75.35;99587.73;85996;1334;23160;-73
2022/04/24 04:17:00;;;;;;;;;;;;;;;6.28;75.36;99585.95;85985;1334;22591;-83
2022/04/24 04:19:05;;;;;;;;;;;;;;;6.31;75.27;99587.93;85948;1333;23231;-83
2022/04/24 04:21:12;;;;;;;;;;;;;;;6.36;75.42;99590.89;85960;1334;22513;-83
2022/04/24 04:23:19;;;;;;;;;;;;;;;6.40;75.58;99592.83;85968;1332;22584;-83
2022/04/24 04:25:25;;;;;;;;;;;;;;;6.45;75.52;99598.23;85955;1335;22406;-84
2022/04/24 04:27:29;;;;;;;;;;;;;;;6.51;75.48;99603.02;86000;1331;23028;-82
2022/04/24 04:29:34;;;;;;;;;;;;;;;6.58;75.11;99601.58;86005;1334;22442;-82
2022/04/24 04:31:39;;;;;;;;;;;;;;;6.64;75.00;99599.65;85983;1328;23574;-74
2022/04/24 04:33:43;;;;;;;;;;;;;;;6.67;74.97;99602.47;85988;1334;23252;-75
2022/04/24 04:35:48;;;;;;;;;;;;;;;6.70;74.70;99598.92;85986;1334;22416;-74
2022/04/24 04:37:52;;;;;;;;;;;;;;;6.69;74.38;99598.94;85960;1335;23067;-83
2022/04/24 04:39:57;;;;;;;;;;;;;;;6.89;76.02;99597.72;85975;1330;23172;-83
2022/04/24 04:42:01;;;;;;;;;;;;;;;8.01;78.49;99592.30;85971;1327;22435;-82
2022/04/24 04:44:07;;;;;;;;;;;;;;;9.24;76.77;99582.75;85975;1334;22725;-83
2022/04/24 04:46:11;;;;;;;;;;;;;;;10.44;76.09;99583.68;85977;1334;23221;-83
2022/04/24 04:48:18;;;;;;;;;;;;;;;11.65;72.37;99578.91;85985;1331;23115;-83
2022/04/24 04:50:23;;;;;;;;;;;;;;;12.65;68.23;99572.66;85874;1333;23043;-83
2022/04/24 04:52:27;;;;;;;;;;;;;;;13.58;64.63;99575.46;85946;1332;22471;-74
2022/04/24 04:54:35;;;;;;;;;;;;;;;14.43;61.74;99569.54;85955;1333;22438;-74
2022/04/24 04:56:40;;;;;;;;;;;;;;;15.05;59.35;99560.63;85961;1332;23153;-74
2022/04/24 04:58:45;;;;;;;;;;;;;;;15.78;56.74;99558.62;85982;1334;23135;-74
2022/04/24 05:00:49;;;;;;;;;;;;;;;16.60;54.13;99559.44;85980;1331;22487;-74
2022/04/24 05:02:54;;;;;;;;;;;;;;;17.30;52.11;99559.50;85828;1335;204206;-84
2022/04/24 05:05:03;;;;;;;;;;;;;;;17.92;50.03;99564.98;85979;1331;22556;-84
2022/04/24 05:07:08;;;;;;;;;;;;;;;18.45;47.93;99570.15;85990;1331;22508;-84
2022/04/24 05:09:12;;;;;;;;;;;;;;;18.94;46.49;99568.27;85955;1334;22544;-84
2022/04/24 05:11:19;;;;;;;;;;;;;;;19.35;44.95;99566.34;85976;1332;22479;-84
2022/04/24 05:13:24;;;;;;;;;;;;;;;19.70;44.04;99563.98;85976;1332;22469;-74
2022/04/24 05:15:33;;;;;;;;;;;;;;;19.83;42.99;99560.55;85975;1330;22537;-74
2022/04/24 05:17:41;;;;;;;;;;;;;;;19.65;43.01;99564.27;85988;1334;22466;-74
2022/04/24 05:19:49;;;;;;;;;;;;;;;19.61;42.77;99564.75;85990;1334;22422;-74
2022/04/24 05:21:53;;;;;;;;;;;;;;;19.99;41.60;99562.48;85992;1331;22985;-75
2022/04/24 05:24:01;;;;;;;;;;;;;;;20.36;40.44;99558.02;85991;1334;22451;-74
2022/04/24 05:26:06;;;;;;;;;;;;;;;20.66;39.77;99558.48;85988;1335;22471;-75
2022/04/24 05:28:10;;;;;;;;;;;;;;;20.95;39.14;99558.95;85982;1334;23119;-84
2022/04/24 05:30:18;;;;;;;;;;;;;;;21.17;39.61;99555.62;85980;1333;23056;-84
2022/04/24 05:32:22;;;;;;;;;;;;;;;21.42;38.77;99558.77;85988;1329;22968;-74
2022/04/24 05:34:27;;;;;;;;;;;;;;;21.79;37.99;99555.73;85980;1333;22446;-75
2022/04/24 05:36:32;;;;;;;;;;;;;;;22.17;37.34;99558.31;85977;1330;23125;-83
2022/04/24 05:38:41;;;;;;;;;;;;;;;22.40;36.64;99554.79;85943;1329;23215;-74
2022/04/24 05:40:45;;;;;;;;;;;;;;;22.71;36.30;99559.40;85744;1335;22445;-74
2022/04/24 05:42:53;;;;;;;;;;;;;;;22.94;36.54;99569.10;85996;1334;22419;-74
2022/04/24 05:45:01;;;;;;;;;;;;;;;23.17;35.39;99569.76;85859;1333;22534;-75
2022/04/24 05:47:07;;;;;;;;;;;;;;;23.18;35.13;99572.34;85942;1332;23111;-75
2022/04/24 05:49:11;;;;;;;;;;;;;;;23.34;34.74;99572.48;85960;1333;23163;-75
2022/04/24 05:51:17;;;;;;;;;;;;;;;23.63;34.24;99570.82;85922;1332;23162;-75
2022/04/24 05:53:22;;;;;;;;;;;;;;;23.91;33.79;99572.88;85958;1333;22519;-85
2022/04/24 05:55:26;;;;;;;;;;;;;;;24.21;33.48;99576.41;85954;1331;23021;-84
2022/04/24 05:57:31;;;;;;;;;;;;;;;24.40;32.77;99580.80;85956;1332;23136;-84
2022/04/24 05:59:36;;;;;;;;;;;;;;;24.71;32.72;99579.76;85968;1335;23234;-85
2022/04/24 06:01:42;;;;;;;;;;;;;;;24.90;32.27;99585.30;85982;1332;23035;-85
2022/04/24 06:03:48;;;;;;;;;;;;;;;25.07;31.87;99580.37;85989;1335;22523;-85
2022/04/24 06:05:55;;;;;;;;;;;;;;;25.29;31.96;99580.16;85994;1334;23237;-85
2022/04/24 06:08:01;;;;;;;;;;;;;;;25.43;31.43;99580.38;85958;1332;23043;-75
2022/04/24 06:10:06;;;;;;;;;;;;;;;25.54;30.72;99579.58;85983;1331;22413;-76
2022/04/24 06:12:12;;;;;;;;;;;;;;;24.77;30.86;99585.70;85981;1330;23113;-75
2022/04/24 06:14:17;;;;;;;;;;;;;;;23.46;31.94;99591.15;85982;1334;22448;-75
2022/04/24 06:16:25;;;;;;;;;;;;;;;22.23;33.06;99596.31;85976;1334;22466;-76
2022/04/24 06:18:30;;;;;;;;;;;;;;;21.13;34.42;99597.36;85976;1333;22617;-85
2022/04/24 06:20:35;;;;;;;;;;;;;;;20.14;35.72;99600.27;85988;1335;22993;-85
2022/04/24 06:22:44;;;;;;;;;;;;;;;19.21;37.18;99601.29;85979;1334;23248;-85
2022/04/24 06:24:50;;;;;;;;;;;;;;;18.38;38.57;99606.75;85940;1331;23116;-85
2022/04/24 06:26:58;;;;;;;;;;;;;;;17.73;40.00;99604.75;85885;1336;22460;-85
2022/04/24 06:29:03;;;;;;;;;;;;;;;17.19;40.96;99607.22;85986;1330;23180;-85
2022/04/24 06:31:08;;;;;;;;;;;;;;;16.71;41.99;99610.02;85979;1330;22432;-84
2022/04/24 06:33:13;;;;;;;;;;;;;;;16.26;43.03;99605.28;85993;1332;23029;-78
2022/04/24 06:35:21;;;;;;;;;;;;;;;15.89;43.96;99606.90;85870;1332;22557;-74
2022/04/24 06:37:29;;;;;;;;;;;;;;;15.52;44.77;99604.10;85957;1332;22476;-82
2022/04/24 06:39:36;;;;;;;;;;;;;;;15.16;45.64;99614.01;85978;1333;23088;-84
2022/04/24 06:41:47;;;;;;;;;;;;;;;14.80;46.36;99620.79;85980;1331;22521;-83
2022/04/24 06:43:55;;;;;;;;;;;;;;;14.52;46.96;99624.29;85999;1333;23157;-83
2022/04/24 06:46:00;;;;;;;;;;;;;;;14.31;47.62;99630.35;85990;1330;23212;-83
2022/04/24 06:48:06;;;;;;;;;;;;;;;14.10;48.33;99630.30;85977;1331;23145;-74
2022/04/24 06:50:14;;;;;;;;;;;;;;;13.88;48.82;99627.70;85973;1330;22453;-74
2022/04/24 06:52:21;;;;;;;;;;;;;;;13.70;49.58;99627.64;85986;1332;22415;-73
2022/04/24 06:54:29;;;;;;;;;;;;;;;13.57;49.95;99628.79;85977;1331;22429;-74
2022/04/24 06:56:35;;;;;;;;;;;;;;;13.47;50.43;99627.69;86001;1332;22536;-82
2022/04/24 06:58:43;;;;;;;;;;;;;;;13.34;50.74;99628.59;85982;1329;22552;-83
2022/04/24 07:00:48;;;;;;;;;;;;;;;13.19;51.39;99624.27;85969;1330;23138;-83
2022/04/24 07:02:56;;;;;;;;;;;;;;;13.11;51.94;99628.42;85969;1327;22468;-74
2022/04/24 07:05:01;;;;;;;;;;;;;;;13.05;52.27;99635.41;85968;1333;23121;-73
2022/04/24 07:07:12;;;;;;;;;;;;;;;12.95;52.09;99643.70;85969;1330;22468;-74
2022/04/24 07:09:20;;;;;;;;;;;;;;;12.84;52.46;99645.09;85921;1332;22552;-74
2022/04/24 07:11:33;;;;;;;;;;;;;;;12.78;52.65;99649.98;85961;1333;22411;-74
2022/04/24 07:13:42;;;;;;;;;;;;;;;12.70;52.67;99650.27;85961;1331;23120;-74
2022/04/24 07:15:47;;;;;;;;;;;;;;;12.56;52.62;99648.96;85926;1332;22632;-74
2022/04/24 07:17:56;;;;;;;;;;;;;;;12.41;53.10;99645.84;85962;1330;23081;-74
2022/04/24 07:20:00;;;;;;;;;;;;;;;12.39;53.89;99645.73;85940;1332;22410;-74
2022/04/24 07:22:06;;;;;;;;;;;;;;;12.48;53.93;99645.96;85935;1335;22416;-84
2022/04/24 07:24:11;;;;;;;;;;;;;;;12.46;54.15;99646.59;85934;1335;22464;-87
2022/04/24 07:26:19;;;;;;;;;;;;;;;12.48;54.12;99638.64;85969;1333;23220;-74
2022/04/24 07:28:35;;;;;;;;;;;;;;;12.46;54.22;99638.72;85971;1330;22457;-83
2022/04/24 07:30:43;;;;;;;;;;;;;;;12.55;54.53;99632.61;85955;1330;22453;-84
2022/04/24 07:32:48;;;;;;;;;;;;;;;12.73;54.69;99633.48;85966;1333;22429;-73
2022/04/24 07:34:53;;;;;;;;;;;;;;;13.12;54.60;99634.66;85956;1332;23106;-73
2022/04/24 07:37:01;;;;;;;;;;;;;;;13.65;54.27;99633.33;85966;1330;22478;-86
2022/04/24 07:39:06;;;;;;;;;;;;;;;14.12;53.65;99635.80;85958;1330;23119;-86
2022/04/24 07:41:10;;;;;;;;;;;;;;;14.62;53.10;99635.52;85973;1328;22635;-81
2022/04/24 07:43:18;;;;;;;;;;;;;;;15.52;52.77;99632.20;85947;1331;22445;-74
2022/04/24 07:45:23;;;;;;;;;;;;;;;16.28;50.57;99629.23;85970;1333;22981;-74
2022/04/24 07:47:31;;;;;;;;;;;;;;;17.08;49.79;99617.73;85966;1332;23051;-75
2022/04/24 07:49:41;;;;;;;;;;;;;;;18.31;48.24;99619.25;85955;1332;22993;-73
2022/04/24 07:51:51;;;;;;;;;;;;;;;19.63;44.52;99609.39;85954;1333;22952;-75
2022/04/24 07:53:56;;;;;;;;;;;;;;;20.44;41.96;99613.27;85966;1330;22432;-74
2022/04/24 07:56:01;;;;;;;;;;;;;;;21.09;40.89;99612.80;85973;1330;23195;-74
2022/04/24 07:58:06;;;;;;;;;;;;;;;21.96;39.93;99614.60;85964;1333;23115;-83
2022/04/24 08:00:15;;;;;;;;;;;;;;;22.61;37.45;99613.89;85872;1336;23698;-82
2022/04/24 08:02:24;;;;;;;;;;;;;;;23.23;37.05;99609.75;85947;1334;22915;-82
2022/04/24 08:04:31;;;;;;;;;;;;;;;23.79;35.44;99608.89;85968;1333;22462;-82
2022/04/24 08:06:38;;;;;;;;;;;;;;;23.64;34.72;99614.32;85964;1330;22636;-80
2022/04/24 08:08:46;;;;;;;;;;;;;;;23.82;34.80;99613.30;85956;1332;22503;-81
2022/04/24 08:10:51;;;;;;;;;;;;;;;24.37;34.03;99614.79;85943;1335;23147;-75
2022/04/24 08:12:56;;;;;;;;;;;;;;;24.46;33.24;99615.95;85879;1333;23181;-75
2022/04/24 08:15:05;;;;;;;;;;;;;;;24.25;32.66;99615.33;85962;1331;22493;-75
2022/04/24 08:17:09;;;;;;;;;;;;;;;23.89;33.26;99615.80;85964;1332;22616;-75
2022/04/24 08:19:14;;;;;;;;;;;;;;;24.00;33.17;99613.59;85943;1334;22483;-75
2022/04/24 08:21:18;;;;;;;;;;;;;;;23.73;32.44;99614.32;85929;1335;23099;-75
2022/04/24 08:23:25;;;;;;;;;;;;;;;23.01;33.24;99618.23;85970;1335;22479;-82
2022/04/24 08:25:33;;;;;;;;;;;;;;;22.67;32.81;99613.66;85963;1327;22538;-81
2022/04/24 08:27:38;;;;;;;;;;;;;;;22.01;33.72;99612.71;85969;1331;23325;-82
2022/04/24 08:29:46;;;;;;;;;;;;;;;21.75;34.56;99604.75;85957;1330;22431;-81
2022/04/24 08:31:55;;;;;;;;;;;;;;;21.46;34.91;99603.60;85974;1335;23118;-81
2022/04/24 08:33:59;;;;;;;;;;;;;;;21.16;35.27;99602.14;85972;1332;22594;-81
2022/04/24 08:36:05;;;;;;;;;;;;;;;21.02;36.12;99601.52;85958;1327;22504;-82
2022/04/24 08:38:14;;;;;;;;;;;;;;;21.29;36.50;99603.80;85862;1331;22509;-75
2022/04/24 08:40:20;;;;;;;;;;;;;;;21.19;35.57;99597.25;85943;1332;22480;-77
2022/04/24 08:42:29;;;;;;;;;;;;;;;20.74;35.68;99600.04;85930;1332;22491;-80
2022/04/24 08:44:34;;;;;;;;;;;;;;;20.40;36.29;99600.20;85934;1332;22678;-82
2022/04/24 08:46:39;;;;;;;;;;;;;;;20.07;36.66;99598.53;85943;1335;23193;-75
2022/04/24 08:48:45;;;;;;;;;;;;;;;19.73;37.57;99596.09;85934;1332;23188;-74
2022/04/24 08:50:50;;;;;;;;;;;;;;;20.29;37.87;99590.02;85950;1333;23012;-73
2022/04/24 08:52:55;;;;;;;;;;;;;;;21.00;37.01;99587.20;85936;1332;23079;-74
2022/04/24 08:55:02;;;;;;;;;;;;;;;21.47;35.71;99584.21;85969;1335;23234;-74
2022/04/24 08:57:09;;;;;;;;;;;;;;;21.49;34.60;99581.74;85961;1332;22650;-83
2022/04/24 08:59:17;;;;;;;;;;;;;;;21.49;35.29;99583.14;85948;1332;22464;-88
2022/04/24 09:01:22;;;;;;;;;;;;;;;21.28;34.22;99582.02;85939;1335;23236;-74
2022/04/24 09:03:30;;;;;;;;;;;;;;;21.54;35.38;99578.58;85919;1335;22990;-82
2022/04/24 09:05:37;;;;;;;;;;;;;;;22.31;34.73;99580.09;85914;1332;23115;-75
2022/04/24 09:07:46;;;;;;;;;;;;;;;22.90;33.41;99575.72;85955;1335;22526;-83
2022/04/24 09:09:54;;;;;;;;;;;;;;;23.21;32.61;99571.81;85801;1338;23140;-75
2022/04/24 09:12:08;;;;;;;;;;;;;;;23.58;32.49;99571.86;85962;1330;22442;-82
2022/04/24 09:14:18;;;;;;;;;;;;;;;24.05;32.12;99567.99;85948;1331;23059;-80
2022/04/24 09:16:33;;;;;;;;;;;;;;;24.68;30.35;99568.00;85829;1336;22676;-76
2022/04/24 09:18:46;;;;;;;;;;;;;;;25.06;30.08;99566.45;85954;1332;22477;-80
2022/04/24 09:20:55;;;;;;;;;;;;;;;25.22;29.63;99568.77;85965;1332;23264;-78
2022/04/24 09:23:03;;;;;;;;;;;;;;;25.29;29.51;99568.67;85970;1330;22636;-82
2022/04/24 09:25:12;;;;;;;;;;;;;;;24.86;29.73;99570.02;85957;1332;22524;-81
2022/04/24 09:27:25;;;;;;;;;;;;;;;24.24;29.55;99572.68;85959;1334;23162;-75
2022/04/24 09:29:32;;;;;;;;;;;;;;;23.45;30.24;99573.63;85956;1334;22512;-75
2022/04/24 09:31:37;;;;;;;;;;;;;;;22.76;31.47;99585.11;85971;1331;22379;-75
2022/04/24 09:33:42;;;;;;;;;;;;;;;22.27;31.35;99583.66;85961;1330;22475;-75
2022/04/24 09:35:54;;;;;;;;;;;;;;;21.61;32.20;99582.29;85963;1332;23081;-75
2022/04/24 09:38:09;;;;;;;;;;;;;;;21.12;33.34;99581.48;85965;1330;23021;-75
2022/04/24 09:40:17;;;;;;;;;;;;;;;20.74;34.29;99578.13;85958;1335;22811;-75
2022/04/24 09:42:22;;;;;;;;;;;;;;;20.48;34.42;99578.52;85948;1330;23106;-81
2022/04/24 09:44:26;;;;;;;;;;;;;;;20.14;35.00;99579.30;85959;1330;23113;-81
2022/04/24 09:46:33;;;;;;;;;;;;;;;19.83;35.50;99580.54;85969;1334;22538;-78
2022/04/24 09:48:52;;;;;;;;;;;;;;;19.59;36.22;99579.06;85970;1330;22432;-75
2022/04/24 09:51:00;;;;;;;;;;;;;;;19.48;36.58;99584.49;85936;1333;22508;-81
2022/04/24 09:53:05;;;;;;;;;;;;;;;19.41;36.39;99586.52;85955;1335;23149;-80
2022/04/24 09:55:11;;;;;;;;;;;;;;;19.26;36.32;99587.79;85777;1338;22623;-81
2022/04/24 09:57:15;;;;;;;;;;;;;;;19.09;36.68;99591.80;85969;1330;22513;-75
2022/04/24 09:59:20;;;;;;;;;;;;;;;18.98;36.55;99596.21;85963;1334;23150;-75
2022/04/24 10:01:25;;;;;;;;;;;;;;;18.85;37.07;99597.05;85956;1335;23172;-75
2022/04/24 10:03:29;;;;;;;;;;;;;;;18.66;36.99;99604.23;85963;1335;23206;-74
2022/04/24 10:05:34;;;;;;;;;;;;;;;18.35;37.34;99600.97;85952;1330;23048;-74
2022/04/24 10:07:39;;;;;;;;;;;;;;;18.15;37.79;99609.14;85957;1332;22459;-80
2022/04/24 10:09:44;;;;;;;;;;;;;;;17.87;38.05;99613.19;85957;1329;23198;-80
2022/04/24 10:11:50;;;;;;;;;;;;;;;17.61;38.22;99612.56;85965;1331;23196;-80
2022/04/24 10:13:57;;;;;;;;;;;;;;;17.37;38.93;99612.69;85973;1335;22483;-81
2022/04/24 10:16:10;;;;;;;;;;;;;;;17.22;39.32;99611.10;85966;1332;22312;-80
2022/04/24 10:18:30;;;;;;;;;;;;;;;17.09;39.83;99612.62;85964;1333;22555;-80
2022/04/24 10:20:55;;;;;;;;;;;;;;;17.09;40.11;99613.86;85963;1332;22496;-80
2022/04/24 10:23:00;;;;;;;;;;;;;;;17.09;40.41;99613.34;85853;1336;22479;-74
2022/04/24 10:25:08;;;;;;;;;;;;;;;17.17;40.74;99613.04;85957;1332;22429;-74
2022/04/24 10:27:12;;;;;;;;;;;;;;;17.32;40.68;99615.89;85957;1330;22484;-74
2022/04/24 10:29:17;;;;;;;;;;;;;;;17.47;40.19;99617.23;85931;1335;23348;-74
2022/04/24 10:31:24;;;;;;;;;;;;;;;17.56;40.02;99616.90;85977;1333;23176;-74
2022/04/24 10:33:33;;;;;;;;;;;;;;;17.71;40.02;99610.40;85979;1330;22502;-80
2022/04/24 10:35:49;;;;;;;;;;;;;;;17.83;39.46;99610.28;85980;1332;23086;-80
2022/04/24 10:37:54;;;;;;;;;;;;;;;17.94;39.51;99611.70;85967;1333;22585;-80
2022/04/24 10:40:03;;;;;;;;;;;;;;;18.01;39.66;99606.27;85956;1333;22435;-79
2022/04/24 10:42:11;;;;;;;;;;;;;;;18.04;39.14;99604.03;85980;1331;23212;-79
2022/04/24 10:44:20;;;;;;;;;;;;;;;18.09;39.36;99599.92;85970;1333;23093;-80
2022/04/24 10:46:28;;;;;;;;;;;;;;;18.21;39.82;99594.70;85987;1331;22517;-82
2022/04/24 10:48:35;;;;;;;;;;;;;;;18.45;39.86;99586.72;85960;1332;23099;-74
2022/04/24 10:50:47;;;;;;;;;;;;;;;18.64;38.74;99590.80;85940;1330;22430;-74
2022/04/24 10:52:55;;;;;;;;;;;;;;;18.75;38.19;99583.40;85901;1333;22517;-74
2022/04/24 10:55:07;;;;;;;;;;;;;;;18.79;38.02;99583.73;85919;1330;23099;-74
2022/04/24 10:57:18;;;;;;;;;;;;;;;18.86;37.77;99580.61;85824;1333;23053;-74
2022/04/24 10:59:23;;;;;;;;;;;;;;;19.00;38.18;99574.81;85923;1327;22418;-74
2022/04/24 11:01:35;;;;;;;;;;;;;;;19.19;38.14;99576.80;85904;1335;23112;-74